sensor_id;sensor_type;location;lat;lon;timestamp;temperature;humidity
23579;DHT22;11967;50.852;4.400;2023-06-14T00:00:17;29.50;57.80
23579;DHT22;11967;50.852;4.400;2023-06-14T00:02:43;29.50;57.80
23579;DHT22;11967;50.852;4.400;2023-06-14T00:05:09;29.50;57.90
23579;DHT22;11967;50.852;4.400;2023-06-14T00:07:41;29.50;58.00
23579;DHT22;11967;50.852;4.400;2023-06-14T00:10:10;29.50;58.00
23579;DHT22;11967;50.852;4.400;2023-06-14T00:12:37;29.50;57.80
23579;DHT22;11967;50.852;4.400;2023-06-14T00:15:03;29.40;58.10
23579;DHT22;11967;50.852;4.400;2023-06-14T00:17:29;29.50;58.60
23579;DHT22;11967;50.852;4.400;2023-06-14T00:19:56;29.50;57.90
23579;DHT22;11967;50.852;4.400;2023-06-14T00:22:22;29.40;57.30
23579;DHT22;11967;50.852;4.400;2023-06-14T00:24:50;29.40;57.70
23579;DHT22;11967;50.852;4.400;2023-06-14T00:27:16;29.40;58.20
23579;DHT22;11967;50.852;4.400;2023-06-14T00:29:43;29.30;57.60
23579;DHT22;11967;50.852;4.400;2023-06-14T00:32:09;29.30;57.80
23579;DHT22;11967;50.852;4.400;2023-06-14T00:34:34;29.20;57.50
23579;DHT22;11967;50.852;4.400;2023-06-14T00:37:00;28.80;57.40
23579;DHT22;11967;50.852;4.400;2023-06-14T00:39:26;28.70;57.80
23579;DHT22;11967;50.852;4.400;2023-06-14T00:41:52;28.70;57.60
23579;DHT22;11967;50.852;4.400;2023-06-14T00:44:18;28.50;58.40
23579;DHT22;11967;50.852;4.400;2023-06-14T00:46:45;28.40;57.90
23579;DHT22;11967;50.852;4.400;2023-06-14T00:49:12;28.20;58.40
23579;DHT22;11967;50.852;4.400;2023-06-14T00:51:38;28.30;58.80
23579;DHT22;11967;50.852;4.400;2023-06-14T00:54:04;28.10;59.00
23579;DHT22;11967;50.852;4.400;2023-06-14T00:56:30;28.00;58.90
23579;DHT22;11967;50.852;4.400;2023-06-14T00:58:56;28.00;59.20
23579;DHT22;11967;50.852;4.400;2023-06-14T01:01:23;28.00;59.30
23579;DHT22;11967;50.852;4.400;2023-06-14T01:03:49;27.90;59.50
23579;DHT22;11967;50.852;4.400;2023-06-14T01:06:23;27.90;59.30
23579;DHT22;11967;50.852;4.400;2023-06-14T01:12:04;27.80;59.10
23579;DHT22;11967;50.852;4.400;2023-06-14T01:14:32;27.80;59.80
23579;DHT22;11967;50.852;4.400;2023-06-14T01:16:59;27.80;59.60
23579;DHT22;11967;50.852;4.400;2023-06-14T01:19:26;27.80;60.10
23579;DHT22;11967;50.852;4.400;2023-06-14T01:21:55;27.90;59.80
23579;DHT22;11967;50.852;4.400;2023-06-14T01:24:21;27.90;59.90
23579;DHT22;11967;50.852;4.400;2023-06-14T01:26:53;27.80;60.10
23579;DHT22;11967;50.852;4.400;2023-06-14T01:29:22;27.70;60.10
23579;DHT22;11967;50.852;4.400;2023-06-14T01:31:49;27.70;60.00
23579;DHT22;11967;50.852;4.400;2023-06-14T01:34:15;27.60;60.40
23579;DHT22;11967;50.852;4.400;2023-06-14T01:36:43;27.60;60.30
23579;DHT22;11967;50.852;4.400;2023-06-14T01:39:14;27.60;60.60
23579;DHT22;11967;50.852;4.400;2023-06-14T01:41:41;27.60;60.30
23579;DHT22;11967;50.852;4.400;2023-06-14T01:44:08;27.80;60.80
23579;DHT22;11967;50.852;4.400;2023-06-14T01:46:35;27.70;60.90
23579;DHT22;11967;50.852;4.400;2023-06-14T01:49:01;27.60;61.80
23579;DHT22;11967;50.852;4.400;2023-06-14T01:51:27;27.60;61.60
23579;DHT22;11967;50.852;4.400;2023-06-14T01:53:53;27.60;60.70
23579;DHT22;11967;50.852;4.400;2023-06-14T01:56:18;27.60;61.70
23579;DHT22;11967;50.852;4.400;2023-06-14T01:58:45;27.50;60.80
23579;DHT22;11967;50.852;4.400;2023-06-14T02:01:11;27.50;61.50
23579;DHT22;11967;50.852;4.400;2023-06-14T02:03:38;27.60;62.00
23579;DHT22;11967;50.852;4.400;2023-06-14T02:06:07;27.70;61.40
23579;DHT22;11967;50.852;4.400;2023-06-14T02:08:32;27.70;61.10
23579;DHT22;11967;50.852;4.400;2023-06-14T02:10:58;27.40;61.40
23579;DHT22;11967;50.852;4.400;2023-06-14T02:13:23;27.40;61.60
23579;DHT22;11967;50.852;4.400;2023-06-14T02:15:49;27.40;62.10
23579;DHT22;11967;50.852;4.400;2023-06-14T02:18:20;27.30;61.40
23579;DHT22;11967;50.852;4.400;2023-06-14T02:20:46;27.30;62.00
23579;DHT22;11967;50.852;4.400;2023-06-14T02:23:12;27.10;62.50
23579;DHT22;11967;50.852;4.400;2023-06-14T02:25:38;27.10;62.70
23579;DHT22;11967;50.852;4.400;2023-06-14T02:28:05;27.20;62.90
23579;DHT22;11967;50.852;4.400;2023-06-14T02:30:30;27.20;63.20
23579;DHT22;11967;50.852;4.400;2023-06-14T02:32:56;27.20;62.30
23579;DHT22;11967;50.852;4.400;2023-06-14T02:35:22;27.20;62.60
23579;DHT22;11967;50.852;4.400;2023-06-14T02:37:52;27.30;63.30
23579;DHT22;11967;50.852;4.400;2023-06-14T02:40:18;27.30;64.80
23579;DHT22;11967;50.852;4.400;2023-06-14T02:42:44;27.40;63.70
23579;DHT22;11967;50.852;4.400;2023-06-14T02:45:09;27.40;63.00
23579;DHT22;11967;50.852;4.400;2023-06-14T02:47:35;27.40;64.50
23579;DHT22;11967;50.852;4.400;2023-06-14T02:50:01;27.30;62.90
23579;DHT22;11967;50.852;4.400;2023-06-14T02:52:28;27.20;62.90
23579;DHT22;11967;50.852;4.400;2023-06-14T02:54:55;27.10;62.90
23579;DHT22;11967;50.852;4.400;2023-06-14T02:57:21;27.10;62.90
23579;DHT22;11967;50.852;4.400;2023-06-14T02:59:47;27.10;63.20
23579;DHT22;11967;50.852;4.400;2023-06-14T03:02:13;27.10;62.90
23579;DHT22;11967;50.852;4.400;2023-06-14T03:04:38;27.10;63.30
23579;DHT22;11967;50.852;4.400;2023-06-14T03:07:05;27.00;63.70
23579;DHT22;11967;50.852;4.400;2023-06-14T03:09:38;27.10;64.30
23579;DHT22;11967;50.852;4.400;2023-06-14T03:12:05;27.20;63.40
23579;DHT22;11967;50.852;4.400;2023-06-14T03:14:34;27.30;62.90
23579;DHT22;11967;50.852;4.400;2023-06-14T03:17:00;27.40;63.80
23579;DHT22;11967;50.852;4.400;2023-06-14T03:19:26;27.20;63.60
23579;DHT22;11967;50.852;4.400;2023-06-14T03:21:52;27.40;65.30
23579;DHT22;11967;50.852;4.400;2023-06-14T03:24:19;27.40;62.80
23579;DHT22;11967;50.852;4.400;2023-06-14T03:26:45;27.30;62.60
23579;DHT22;11967;50.852;4.400;2023-06-14T03:29:10;27.10;63.10
23579;DHT22;11967;50.852;4.400;2023-06-14T03:31:36;27.20;63.90
23579;DHT22;11967;50.852;4.400;2023-06-14T03:34:02;27.30;63.30
23579;DHT22;11967;50.852;4.400;2023-06-14T03:36:27;27.20;62.60
23579;DHT22;11967;50.852;4.400;2023-06-14T03:38:53;27.20;63.70
23579;DHT22;11967;50.852;4.400;2023-06-14T03:41:20;27.00;63.10
23579;DHT22;11967;50.852;4.400;2023-06-14T03:43:46;27.00;64.10
23579;DHT22;11967;50.852;4.400;2023-06-14T03:46:11;26.90;63.80
23579;DHT22;11967;50.852;4.400;2023-06-14T03:48:37;27.00;63.70
23579;DHT22;11967;50.852;4.400;2023-06-14T03:51:04;26.90;63.40
23579;DHT22;11967;50.852;4.400;2023-06-14T03:53:30;26.80;63.10
23579;DHT22;11967;50.852;4.400;2023-06-14T03:55:56;26.90;63.60
23579;DHT22;11967;50.852;4.400;2023-06-14T03:58:22;26.80;64.20
23579;DHT22;11967;50.852;4.400;2023-06-14T04:00:48;26.80;64.10
23579;DHT22;11967;50.852;4.400;2023-06-14T04:03:14;26.90;64.20
23579;DHT22;11967;50.852;4.400;2023-06-14T04:05:41;26.80;64.80
23579;DHT22;11967;50.852;4.400;2023-06-14T04:08:08;26.80;65.00
23579;DHT22;11967;50.852;4.400;2023-06-14T04:10:40;26.80;64.50
23579;DHT22;11967;50.852;4.400;2023-06-14T04:13:06;26.60;64.70
23579;DHT22;11967;50.852;4.400;2023-06-14T04:15:32;26.80;66.10
23579;DHT22;11967;50.852;4.400;2023-06-14T04:17:58;26.80;64.40
23579;DHT22;11967;50.852;4.400;2023-06-14T04:20:24;26.80;64.60
23579;DHT22;11967;50.852;4.400;2023-06-14T04:22:51;26.80;64.70
23579;DHT22;11967;50.852;4.400;2023-06-14T04:25:20;26.70;64.30
23579;DHT22;11967;50.852;4.400;2023-06-14T04:27:46;26.70;64.80
23579;DHT22;11967;50.852;4.400;2023-06-14T04:30:12;26.80;65.00
23579;DHT22;11967;50.852;4.400;2023-06-14T04:32:38;26.80;64.50
23579;DHT22;11967;50.852;4.400;2023-06-14T04:35:08;26.50;64.80
23579;DHT22;11967;50.852;4.400;2023-06-14T04:37:34;26.40;65.70
23579;DHT22;11967;50.852;4.400;2023-06-14T04:40:00;26.50;66.10
23579;DHT22;11967;50.852;4.400;2023-06-14T04:42:28;26.60;65.20
23579;DHT22;11967;50.852;4.400;2023-06-14T04:44:57;26.60;65.30
23579;DHT22;11967;50.852;4.400;2023-06-14T04:47:23;26.80;66.10
23579;DHT22;11967;50.852;4.400;2023-06-14T04:49:50;26.90;65.50
23579;DHT22;11967;50.852;4.400;2023-06-14T04:52:17;27.00;66.10
23579;DHT22;11967;50.852;4.400;2023-06-14T04:54:47;26.80;65.30
23579;DHT22;11967;50.852;4.400;2023-06-14T04:57:13;26.80;65.50
23579;DHT22;11967;50.852;4.400;2023-06-14T04:59:40;26.80;65.50
23579;DHT22;11967;50.852;4.400;2023-06-14T05:02:06;26.70;65.20
23579;DHT22;11967;50.852;4.400;2023-06-14T05:04:32;26.60;65.20
23579;DHT22;11967;50.852;4.400;2023-06-14T05:06:58;26.40;65.60
23579;DHT22;11967;50.852;4.400;2023-06-14T05:09:23;26.50;66.30
23579;DHT22;11967;50.852;4.400;2023-06-14T05:11:49;26.60;66.80
23579;DHT22;11967;50.852;4.400;2023-06-14T05:14:15;26.90;66.60
23579;DHT22;11967;50.852;4.400;2023-06-14T05:16:41;26.80;65.90
23579;DHT22;11967;50.852;4.400;2023-06-14T05:19:08;26.70;66.30
23579;DHT22;11967;50.852;4.400;2023-06-14T05:21:35;26.80;66.50
23579;DHT22;11967;50.852;4.400;2023-06-14T05:24:01;26.90;66.40
23579;DHT22;11967;50.852;4.400;2023-06-14T05:26:26;26.90;65.90
23579;DHT22;11967;50.852;4.400;2023-06-14T05:28:58;27.20;66.40
23579;DHT22;11967;50.852;4.400;2023-06-14T05:31:24;27.10;65.50
23579;DHT22;11967;50.852;4.400;2023-06-14T05:33:52;27.30;65.70
23579;DHT22;11967;50.852;4.400;2023-06-14T05:36:18;27.20;64.00
23579;DHT22;11967;50.852;4.400;2023-06-14T05:38:44;27.20;65.70
23579;DHT22;11967;50.852;4.400;2023-06-14T05:41:10;27.30;65.20
23579;DHT22;11967;50.852;4.400;2023-06-14T05:43:35;27.30;66.00
23579;DHT22;11967;50.852;4.400;2023-06-14T05:46:01;27.20;64.50
23579;DHT22;11967;50.852;4.400;2023-06-14T05:48:27;27.50;66.10
23579;DHT22;11967;50.852;4.400;2023-06-14T05:50:53;27.50;66.00
23579;DHT22;11967;50.852;4.400;2023-06-14T05:53:20;27.70;67.80
23579;DHT22;11967;50.852;4.400;2023-06-14T05:55:45;27.70;64.40
23579;DHT22;11967;50.852;4.400;2023-06-14T05:58:11;27.50;65.90
23579;DHT22;11967;50.852;4.400;2023-06-14T06:00:39;27.40;65.50
23579;DHT22;11967;50.852;4.400;2023-06-14T06:03:04;27.40;66.80
23579;DHT22;11967;50.852;4.400;2023-06-14T06:05:30;27.40;66.40
23579;DHT22;11967;50.852;4.400;2023-06-14T06:07:56;27.10;63.90
23579;DHT22;11967;50.852;4.400;2023-06-14T06:10:21;27.20;67.90
23579;DHT22;11967;50.852;4.400;2023-06-14T06:12:47;27.40;66.50
23579;DHT22;11967;50.852;4.400;2023-06-14T06:15:14;27.20;64.00
23579;DHT22;11967;50.852;4.400;2023-06-14T06:17:40;27.00;66.00
23579;DHT22;11967;50.852;4.400;2023-06-14T06:20:06;27.10;68.30
23579;DHT22;11967;50.852;4.400;2023-06-14T06:22:34;27.40;67.60
23579;DHT22;11967;50.852;4.400;2023-06-14T06:25:00;27.50;66.70
23579;DHT22;11967;50.852;4.400;2023-06-14T06:27:25;27.40;65.40
23579;DHT22;11967;50.852;4.400;2023-06-14T06:29:51;27.20;64.00
23579;DHT22;11967;50.852;4.400;2023-06-14T06:32:18;26.80;65.00
23579;DHT22;11967;50.852;4.400;2023-06-14T06:34:44;26.50;66.00
23579;DHT22;11967;50.852;4.400;2023-06-14T06:37:10;26.30;65.80
23579;DHT22;11967;50.852;4.400;2023-06-14T06:39:36;26.10;66.30
23579;DHT22;11967;50.852;4.400;2023-06-14T06:42:01;25.90;66.40
23579;DHT22;11967;50.852;4.400;2023-06-14T06:44:27;26.00;66.10
23579;DHT22;11967;50.852;4.400;2023-06-14T06:46:53;25.90;66.50
23579;DHT22;11967;50.852;4.400;2023-06-14T06:49:18;25.80;67.60
23579;DHT22;11967;50.852;4.400;2023-06-14T06:51:59;25.70;67.90
23579;DHT22;11967;50.852;4.400;2023-06-14T06:54:26;25.90;69.10
23579;DHT22;11967;50.852;4.400;2023-06-14T06:56:51;26.10;68.40
23579;DHT22;11967;50.852;4.400;2023-06-14T06:59:17;26.20;67.70
23579;DHT22;11967;50.852;4.400;2023-06-14T07:01:43;26.40;70.00
23579;DHT22;11967;50.852;4.400;2023-06-14T07:04:08;26.50;67.40
23579;DHT22;11967;50.852;4.400;2023-06-14T07:06:34;26.60;67.70
23579;DHT22;11967;50.852;4.400;2023-06-14T07:08:59;26.50;67.40
23579;DHT22;11967;50.852;4.400;2023-06-14T07:11:27;26.70;68.90
23579;DHT22;11967;50.852;4.400;2023-06-14T07:13:52;26.90;69.70
23579;DHT22;11967;50.852;4.400;2023-06-14T07:16:18;27.10;67.50
23579;DHT22;11967;50.852;4.400;2023-06-14T07:18:44;26.90;66.10
23579;DHT22;11967;50.852;4.400;2023-06-14T07:21:09;26.80;66.20
23579;DHT22;11967;50.852;4.400;2023-06-14T07:23:35;26.60;65.80
23579;DHT22;11967;50.852;4.400;2023-06-14T07:26:01;26.40;68.20
23579;DHT22;11967;50.852;4.400;2023-06-14T07:28:29;26.60;69.20
23579;DHT22;11967;50.852;4.400;2023-06-14T07:30:55;26.80;68.60
23579;DHT22;11967;50.852;4.400;2023-06-14T07:33:21;27.00;68.60
23579;DHT22;11967;50.852;4.400;2023-06-14T07:35:46;27.20;67.80
23579;DHT22;11967;50.852;4.400;2023-06-14T07:38:13;27.40;66.70
23579;DHT22;11967;50.852;4.400;2023-06-14T07:40:39;27.30;66.80
23579;DHT22;11967;50.852;4.400;2023-06-14T07:43:04;27.30;71.80
23579;DHT22;11967;50.852;4.400;2023-06-14T07:45:30;27.40;74.00
23579;DHT22;11967;50.852;4.400;2023-06-14T07:47:56;27.50;71.90
23579;DHT22;11967;50.852;4.400;2023-06-14T07:50:22;27.60;71.10
23579;DHT22;11967;50.852;4.400;2023-06-14T07:52:48;27.80;71.40
23579;DHT22;11967;50.852;4.400;2023-06-14T07:55:15;27.80;73.10
23579;DHT22;11967;50.852;4.400;2023-06-14T07:57:41;27.80;72.50
23579;DHT22;11967;50.852;4.400;2023-06-14T08:00:08;27.80;73.30
23579;DHT22;11967;50.852;4.400;2023-06-14T08:02:36;27.90;73.20
23579;DHT22;11967;50.852;4.400;2023-06-14T08:05:02;28.00;72.60
23579;DHT22;11967;50.852;4.400;2023-06-14T08:07:28;28.10;73.00
23579;DHT22;11967;50.852;4.400;2023-06-14T08:09:53;28.10;72.30
23579;DHT22;11967;50.852;4.400;2023-06-14T08:12:19;28.20;72.80
23579;DHT22;11967;50.852;4.400;2023-06-14T08:14:44;28.20;73.00
23579;DHT22;11967;50.852;4.400;2023-06-14T08:17:10;28.20;73.10
23579;DHT22;11967;50.852;4.400;2023-06-14T08:19:36;28.30;72.50
23579;DHT22;11967;50.852;4.400;2023-06-14T08:22:02;28.30;72.30
23579;DHT22;11967;50.852;4.400;2023-06-14T08:24:29;28.30;72.60
23579;DHT22;11967;50.852;4.400;2023-06-14T08:26:54;28.30;72.10
23579;DHT22;11967;50.852;4.400;2023-06-14T08:29:22;28.40;71.90
23579;DHT22;11967;50.852;4.400;2023-06-14T08:31:47;28.40;71.30
23579;DHT22;11967;50.852;4.400;2023-06-14T08:34:13;28.40;71.20
23579;DHT22;11967;50.852;4.400;2023-06-14T08:36:39;28.40;71.30
23579;DHT22;11967;50.852;4.400;2023-06-14T08:39:05;28.40;70.80
23579;DHT22;11967;50.852;4.400;2023-06-14T08:41:31;28.40;70.80
23579;DHT22;11967;50.852;4.400;2023-06-14T08:43:58;28.40;66.70
23579;DHT22;11967;50.852;4.400;2023-06-14T08:46:26;28.10;68.30
23579;DHT22;11967;50.852;4.400;2023-06-14T08:48:55;28.00;67.80
23579;DHT22;11967;50.852;4.400;2023-06-14T08:51:25;28.00;66.40
23579;DHT22;11967;50.852;4.400;2023-06-14T08:53:55;27.90;67.10
23579;DHT22;11967;50.852;4.400;2023-06-14T08:56:27;27.80;65.90
23579;DHT22;11967;50.852;4.400;2023-06-14T08:58:55;27.60;66.00
23579;DHT22;11967;50.852;4.400;2023-06-14T09:01:22;27.50;66.50
23579;DHT22;11967;50.852;4.400;2023-06-14T09:03:49;27.50;67.00
23579;DHT22;11967;50.852;4.400;2023-06-14T09:06:15;27.50;68.20
23579;DHT22;11967;50.852;4.400;2023-06-14T09:08:45;27.50;68.00
23579;DHT22;11967;50.852;4.400;2023-06-14T09:11:12;27.30;69.50
23579;DHT22;11967;50.852;4.400;2023-06-14T09:13:38;27.30;70.00
23579;DHT22;11967;50.852;4.400;2023-06-14T09:16:06;27.20;70.20
23579;DHT22;11967;50.852;4.400;2023-06-14T09:18:51;27.10;70.40
23579;DHT22;11967;50.852;4.400;2023-06-14T09:21:17;27.10;71.20
23579;DHT22;11967;50.852;4.400;2023-06-14T09:23:45;27.10;71.30
23579;DHT22;11967;50.852;4.400;2023-06-14T09:26:17;27.20;70.10
23579;DHT22;11967;50.852;4.400;2023-06-14T09:28:43;27.20;70.10
23579;DHT22;11967;50.852;4.400;2023-06-14T09:31:19;27.40;70.60
23579;DHT22;11967;50.852;4.400;2023-06-14T09:33:46;27.50;70.90
23579;DHT22;11967;50.852;4.400;2023-06-14T09:36:17;27.60;71.20
23579;DHT22;11967;50.852;4.400;2023-06-14T09:38:52;27.70;70.30
23579;DHT22;11967;50.852;4.400;2023-06-14T09:41:18;27.90;71.20
23579;DHT22;11967;50.852;4.400;2023-06-14T09:43:43;27.90;70.70
23579;DHT22;11967;50.852;4.400;2023-06-14T09:46:11;28.00;70.90
23579;DHT22;11967;50.852;4.400;2023-06-14T09:48:36;28.10;71.20
23579;DHT22;11967;50.852;4.400;2023-06-14T09:51:02;28.20;71.50
23579;DHT22;11967;50.852;4.400;2023-06-14T09:53:30;28.20;72.50
23579;DHT22;11967;50.852;4.400;2023-06-14T09:55:57;28.30;73.80
23579;DHT22;11967;50.852;4.400;2023-06-14T09:58:26;28.30;73.30
23579;DHT22;11967;50.852;4.400;2023-06-14T10:00:57;28.30;69.70
23579;DHT22;11967;50.852;4.400;2023-06-14T10:03:28;28.20;67.80
23579;DHT22;11967;50.852;4.400;2023-06-14T10:05:55;28.20;67.70
23579;DHT22;11967;50.852;4.400;2023-06-14T10:08:33;28.20;68.50
23579;DHT22;11967;50.852;4.400;2023-06-14T10:11:02;28.20;69.40
23579;DHT22;11967;50.852;4.400;2023-06-14T10:13:32;28.30;71.30
23579;DHT22;11967;50.852;4.400;2023-06-14T10:21:35;28.50;71.50
23579;DHT22;11967;50.852;4.400;2023-06-14T10:24:05;28.50;72.10
23579;DHT22;11967;50.852;4.400;2023-06-14T10:26:32;28.60;70.90
23579;DHT22;11967;50.852;4.400;2023-06-14T10:29:08;28.70;71.00
23579;DHT22;11967;50.852;4.400;2023-06-14T10:31:44;28.60;69.30
23579;DHT22;11967;50.852;4.400;2023-06-14T10:34:11;28.60;67.30
23579;DHT22;11967;50.852;4.400;2023-06-14T10:36:41;28.70;67.90
23579;DHT22;11967;50.852;4.400;2023-06-14T10:39:15;28.70;65.40
23579;DHT22;11967;50.852;4.400;2023-06-14T10:41:41;28.70;66.20
23579;DHT22;11967;50.852;4.400;2023-06-14T10:46:39;28.70;65.40
23579;DHT22;11967;50.852;4.400;2023-06-14T10:49:05;28.80;65.70
23579;DHT22;11967;50.852;4.400;2023-06-14T10:51:45;28.80;64.80
23579;DHT22;11967;50.852;4.400;2023-06-14T10:54:20;28.90;63.50
23579;DHT22;11967;50.852;4.400;2023-06-14T10:56:52;28.90;63.80
23579;DHT22;11967;50.852;4.400;2023-06-14T10:59:18;28.90;62.60
23579;DHT22;11967;50.852;4.400;2023-06-14T11:04:47;29.00;61.50
23579;DHT22;11967;50.852;4.400;2023-06-14T11:07:38;29.10;62.60
23579;DHT22;11967;50.852;4.400;2023-06-14T11:12:49;29.10;61.20
23579;DHT22;11967;50.852;4.400;2023-06-14T11:15:17;29.00;62.00
23579;DHT22;11967;50.852;4.400;2023-06-14T11:17:52;29.10;60.80
23579;DHT22;11967;50.852;4.400;2023-06-14T11:20:25;29.00;61.30
23579;DHT22;11967;50.852;4.400;2023-06-14T11:22:51;29.10;61.50
23579;DHT22;11967;50.852;4.400;2023-06-14T11:25:17;29.30;60.90
23579;DHT22;11967;50.852;4.400;2023-06-14T11:27:44;29.40;61.10
23579;DHT22;11967;50.852;4.400;2023-06-14T11:30:10;29.50;60.50
23579;DHT22;11967;50.852;4.400;2023-06-14T11:32:37;29.50;59.80
23579;DHT22;11967;50.852;4.400;2023-06-14T11:35:04;29.40;58.40
23579;DHT22;11967;50.852;4.400;2023-06-14T11:37:31;29.40;58.00
23579;DHT22;11967;50.852;4.400;2023-06-14T11:40:01;29.40;57.90
23579;DHT22;11967;50.852;4.400;2023-06-14T11:42:28;29.40;57.60
23579;DHT22;11967;50.852;4.400;2023-06-14T11:44:54;29.30;57.60
23579;DHT22;11967;50.852;4.400;2023-06-14T11:47:20;29.20;58.10
23579;DHT22;11967;50.852;4.400;2023-06-14T11:49:47;29.30;58.00
23579;DHT22;11967;50.852;4.400;2023-06-14T11:52:13;29.40;58.30
23579;DHT22;11967;50.852;4.400;2023-06-14T11:54:39;29.50;56.80
23579;DHT22;11967;50.852;4.400;2023-06-14T11:57:08;29.40;57.00
23579;DHT22;11967;50.852;4.400;2023-06-14T11:59:43;29.30;57.60
23579;DHT22;11967;50.852;4.400;2023-06-14T12:02:13;29.40;58.10
23579;DHT22;11967;50.852;4.400;2023-06-14T12:04:41;29.50;57.50
23579;DHT22;11967;50.852;4.400;2023-06-14T12:07:15;29.60;57.40
23579;DHT22;11967;50.852;4.400;2023-06-14T12:09:41;29.60;57.30
23579;DHT22;11967;50.852;4.400;2023-06-14T12:12:12;29.60;57.30
23579;DHT22;11967;50.852;4.400;2023-06-14T12:14:37;29.50;57.30
23579;DHT22;11967;50.852;4.400;2023-06-14T12:17:07;29.60;58.00
23579;DHT22;11967;50.852;4.400;2023-06-14T12:19:41;29.80;57.30
23579;DHT22;11967;50.852;4.400;2023-06-14T12:22:12;29.80;56.20
23579;DHT22;11967;50.852;4.400;2023-06-14T12:24:38;29.90;55.30
23579;DHT22;11967;50.852;4.400;2023-06-14T12:27:05;30.00;55.10
23579;DHT22;11967;50.852;4.400;2023-06-14T12:29:31;30.10;55.00
23579;DHT22;11967;50.852;4.400;2023-06-14T12:31:57;30.10;54.70
23579;DHT22;11967;50.852;4.400;2023-06-14T12:34:24;30.00;54.70
23579;DHT22;11967;50.852;4.400;2023-06-14T12:36:50;29.90;54.50
23579;DHT22;11967;50.852;4.400;2023-06-14T12:39:16;29.80;55.00
23579;DHT22;11967;50.852;4.400;2023-06-14T12:41:42;29.80;54.10
23579;DHT22;11967;50.852;4.400;2023-06-14T12:44:07;29.70;53.30
23579;DHT22;11967;50.852;4.400;2023-06-14T12:46:34;29.60;54.20
23579;DHT22;11967;50.852;4.400;2023-06-14T12:49:00;29.60;54.00
23579;DHT22;11967;50.852;4.400;2023-06-14T12:51:26;29.70;54.30
23579;DHT22;11967;50.852;4.400;2023-06-14T12:53:53;29.60;53.80
23579;DHT22;11967;50.852;4.400;2023-06-14T12:56:20;29.50;54.90
23579;DHT22;11967;50.852;4.400;2023-06-14T12:58:45;29.50;55.10
23579;DHT22;11967;50.852;4.400;2023-06-14T13:01:14;29.50;55.00
23579;DHT22;11967;50.852;4.400;2023-06-14T13:03:40;29.50;55.10
23579;DHT22;11967;50.852;4.400;2023-06-14T13:06:06;29.50;55.60
23579;DHT22;11967;50.852;4.400;2023-06-14T13:08:31;29.60;54.90
23579;DHT22;11967;50.852;4.400;2023-06-14T13:10:58;29.60;54.20
23579;DHT22;11967;50.852;4.400;2023-06-14T13:13:24;29.60;55.60
23579;DHT22;11967;50.852;4.400;2023-06-14T13:15:50;29.60;54.80
23579;DHT22;11967;50.852;4.400;2023-06-14T13:18:17;29.60;55.00
23579;DHT22;11967;50.852;4.400;2023-06-14T13:20:43;29.60;55.00
23579;DHT22;11967;50.852;4.400;2023-06-14T13:23:09;29.70;55.90
23579;DHT22;11967;50.852;4.400;2023-06-14T13:25:36;29.70;54.90
23579;DHT22;11967;50.852;4.400;2023-06-14T13:28:04;29.70;54.50
23579;DHT22;11967;50.852;4.400;2023-06-14T13:30:31;29.70;54.50
23579;DHT22;11967;50.852;4.400;2023-06-14T13:32:57;29.70;54.50
23579;DHT22;11967;50.852;4.400;2023-06-14T13:35:24;29.70;54.40
23579;DHT22;11967;50.852;4.400;2023-06-14T13:37:50;29.80;55.00
23579;DHT22;11967;50.852;4.400;2023-06-14T13:40:16;29.90;54.00
23579;DHT22;11967;50.852;4.400;2023-06-14T13:42:42;30.10;53.70
23579;DHT22;11967;50.852;4.400;2023-06-14T13:45:12;30.10;53.70
23579;DHT22;11967;50.852;4.400;2023-06-14T13:47:38;30.00;53.70
23579;DHT22;11967;50.852;4.400;2023-06-14T13:50:04;30.00;52.50
23579;DHT22;11967;50.852;4.400;2023-06-14T13:52:30;29.90;52.30
23579;DHT22;11967;50.852;4.400;2023-06-14T13:54:56;30.00;52.60
23579;DHT22;11967;50.852;4.400;2023-06-14T13:57:22;30.00;51.70
23579;DHT22;11967;50.852;4.400;2023-06-14T13:59:48;29.90;51.00
23579;DHT22;11967;50.852;4.400;2023-06-14T14:02:14;29.90;50.70
23579;DHT22;11967;50.852;4.400;2023-06-14T14:04:41;29.80;50.70
23579;DHT22;11967;50.852;4.400;2023-06-14T14:07:08;29.80;51.50
23579;DHT22;11967;50.852;4.400;2023-06-14T14:09:35;29.80;51.80
23579;DHT22;11967;50.852;4.400;2023-06-14T14:12:01;29.80;51.40
23579;DHT22;11967;50.852;4.400;2023-06-14T14:14:31;29.80;51.70
23579;DHT22;11967;50.852;4.400;2023-06-14T14:16:57;29.80;51.60
23579;DHT22;11967;50.852;4.400;2023-06-14T14:19:23;29.70;51.20
23579;DHT22;11967;50.852;4.400;2023-06-14T14:21:49;29.70;51.70
23579;DHT22;11967;50.852;4.400;2023-06-14T14:24:15;29.80;51.50
23579;DHT22;11967;50.852;4.400;2023-06-14T14:26:41;29.70;50.60
23579;DHT22;11967;50.852;4.400;2023-06-14T14:29:08;29.70;50.80
23579;DHT22;11967;50.852;4.400;2023-06-14T14:31:34;29.80;50.80
23579;DHT22;11967;50.852;4.400;2023-06-14T14:33:59;29.80;50.70
23579;DHT22;11967;50.852;4.400;2023-06-14T14:36:25;29.90;51.70
23579;DHT22;11967;50.852;4.400;2023-06-14T14:38:50;29.90;50.70
23579;DHT22;11967;50.852;4.400;2023-06-14T14:41:19;29.80;51.00
23579;DHT22;11967;50.852;4.400;2023-06-14T14:43:45;29.80;51.10
23579;DHT22;11967;50.852;4.400;2023-06-14T14:46:10;29.90;51.40
23579;DHT22;11967;50.852;4.400;2023-06-14T14:48:36;29.90;50.80
23579;DHT22;11967;50.852;4.400;2023-06-14T14:51:01;29.90;51.20
23579;DHT22;11967;50.852;4.400;2023-06-14T14:53:27;29.80;50.50
23579;DHT22;11967;50.852;4.400;2023-06-14T14:55:53;29.80;50.40
23579;DHT22;11967;50.852;4.400;2023-06-14T14:58:19;29.90;50.40
23579;DHT22;11967;50.852;4.400;2023-06-14T15:00:45;29.90;50.30
23579;DHT22;11967;50.852;4.400;2023-06-14T15:03:11;29.80;50.30
23579;DHT22;11967;50.852;4.400;2023-06-14T15:05:37;29.90;49.70
23579;DHT22;11967;50.852;4.400;2023-06-14T15:08:03;29.80;49.90
23579;DHT22;11967;50.852;4.400;2023-06-14T15:10:29;29.80;49.90
23579;DHT22;11967;50.852;4.400;2023-06-14T15:12:54;29.80;49.70
23579;DHT22;11967;50.852;4.400;2023-06-14T15:15:23;29.80;50.00
23579;DHT22;11967;50.852;4.400;2023-06-14T15:17:49;29.80;50.40
23579;DHT22;11967;50.852;4.400;2023-06-14T15:20:15;29.80;50.20
23579;DHT22;11967;50.852;4.400;2023-06-14T15:22:41;29.70;49.70
23579;DHT22;11967;50.852;4.400;2023-06-14T15:25:07;29.60;50.60
23579;DHT22;11967;50.852;4.400;2023-06-14T15:27:32;29.60;50.80
23579;DHT22;11967;50.852;4.400;2023-06-14T15:29:58;29.70;50.90
23579;DHT22;11967;50.852;4.400;2023-06-14T15:32:24;29.60;51.00
23579;DHT22;11967;50.852;4.400;2023-06-14T15:34:50;29.50;51.30
23579;DHT22;11967;50.852;4.400;2023-06-14T15:37:16;29.50;52.00
23579;DHT22;11967;50.852;4.400;2023-06-14T15:39:42;29.60;53.80
23579;DHT22;11967;50.852;4.400;2023-06-14T15:42:08;29.60;54.00
23579;DHT22;11967;50.852;4.400;2023-06-14T15:44:33;29.80;53.30